Mussala Top/Sommet, Bulgaria
Current Conditions -  °F | °C
As of 6:00 AM on Sunday 26 Oct 2014 (Local Time) from LBSF Reporting Station
Light Snow Light Snow  
Wind Chill: 34°   Ceiling: 5200
Heat Index: 34°   Visibility: 5mi
Dew Point: 30°   Wind: 0mph
Humidity: 87%   Direction: NA
Pressure: 30.24"   Gusts: NA
Location:  42.18°N, 23.58°E
Report Text: LBSF 260300Z 00000MPS 8000 -SN FEW037 SCT043 OVC052 01/M01 Q1024 TEMPO 4000 SN
Loading
Personal Weather Stations






























Interactive Weather Map
Tropical Storm Tracking
New forecast layout! Learn more

10-Day Weather Forecast

Advertisements
Track Severe Weather on mobile